createdAt,value
2017-04-10T00:00:51.408Z,69.77
2017-04-10T00:01:49.297Z,67.69
2017-04-10T00:02:47.220Z,65.92
2017-04-10T00:03:45.632Z,64.51
2017-04-10T00:04:43.453Z,61.69
2017-04-10T00:05:41.947Z,61.16
2017-04-10T00:06:45.127Z,61.28
2017-04-10T00:07:43.128Z,61.58
2017-04-10T00:08:41.003Z,62.83
2017-04-10T00:09:39.231Z,63.23
2017-04-10T00:10:37.076Z,62.74
2017-04-10T00:11:35.028Z,67.72
2017-04-10T00:12:32.847Z,68.94
2017-04-10T00:13:30.793Z,71.69
2017-04-10T00:14:28.724Z,72.58
2017-04-10T00:15:26.615Z,72.91
2017-04-10T00:16:24.499Z,70.96
2017-04-10T00:17:22.445Z,72.32
2017-04-10T00:18:20.296Z,72.46
2017-04-10T00:19:18.119Z,69.92
2017-04-10T00:20:16.151Z,67.79
2017-04-10T00:21:14.158Z,69.49
2017-04-10T00:22:12.063Z,69.59
2017-04-10T00:23:09.920Z,65.16
2017-04-10T00:24:07.737Z,66.18
2017-04-10T00:25:05.582Z,68.16
2017-04-10T00:26:03.473Z,66.76
2017-04-10T00:27:01.437Z,63.68
2017-04-10T00:27:59.301Z,64.77
2017-04-10T00:28:57.128Z,67.03
2017-04-10T00:29:54.980Z,69.50
2017-04-10T00:30:52.831Z,71.86
2017-04-10T00:31:50.719Z,71.59
2017-04-10T00:32:48.556Z,72.49
2017-04-10T00:33:46.408Z,69.53
2017-04-10T00:34:44.233Z,72.30
2017-04-10T00:35:42.238Z,69.94
2017-04-10T00:36:40.164Z,69.43
2017-04-10T00:37:37.962Z,71.64
2017-04-10T00:38:35.866Z,70.50
2017-04-10T00:39:33.675Z,71.03
2017-04-10T00:40:31.689Z,68.54
2017-04-10T00:41:29.503Z,67.76
2017-04-10T00:42:27.544Z,63.63
2017-04-10T00:43:25.354Z,66.07
2017-04-10T00:44:23.156Z,65.23
2017-04-10T00:45:21.003Z,70.04
2017-04-10T00:46:18.812Z,66.56
2017-04-10T00:47:16.819Z,65.99
2017-04-10T00:48:14.627Z,68.62
2017-04-10T00:49:12.700Z,73.23
2017-04-10T00:50:10.539Z,74.56
2017-04-10T00:51:08.366Z,73.57
2017-04-10T00:52:06.177Z,72.22
2017-04-10T00:53:04.084Z,69.57
2017-04-10T00:54:02.064Z,70.72
2017-04-10T00:54:59.877Z,70.31
2017-04-10T00:55:57.787Z,72.66
2017-04-10T00:56:55.613Z,70.64
2017-04-10T00:57:53.435Z,68.15
2017-04-10T00:58:51.607Z,66.12
2017-04-10T00:59:49.480Z,65.45
2017-04-10T01:00:47.387Z,68.58
2017-04-10T01:01:45.239Z,68.46
2017-04-10T01:02:43.104Z,65.43
2017-04-10T01:03:40.957Z,67.42
2017-04-10T01:04:38.769Z,66.71
2017-04-10T01:05:36.715Z,68.50
2017-04-10T01:06:34.576Z,66.21
2017-04-10T01:07:32.480Z,63.92
2017-04-10T01:08:30.381Z,63.83
2017-04-10T01:09:28.193Z,66.21
2017-04-10T01:10:26.046Z,72.06
2017-04-10T01:11:23.912Z,70.92
2017-04-10T01:12:21.801Z,73.97
2017-04-10T01:13:19.691Z,75.34
2017-04-10T01:14:17.560Z,74.32
2017-04-10T01:15:15.392Z,72.19
2017-04-10T01:16:13.444Z,70.32
2017-04-10T01:17:11.278Z,74.33
2017-04-10T01:18:09.185Z,72.69
2017-04-10T01:19:07.062Z,74.44
2017-04-10T01:20:04.944Z,74.25
2017-04-10T01:21:02.796Z,75.58
2017-04-10T01:22:00.612Z,73.73
2017-04-10T01:22:58.519Z,72.00
2017-04-10T01:23:56.392Z,73.08
2017-04-10T01:24:54.254Z,71.54
2017-04-10T01:25:52.167Z,72.77
2017-04-10T01:26:49.991Z,73.87
2017-04-10T01:27:47.963Z,70.85
2017-04-10T01:28:45.892Z,71.80
2017-04-10T01:29:43.760Z,71.41
2017-04-10T01:30:41.586Z,70.20
2017-04-10T01:31:39.482Z,69.20
2017-04-10T01:32:37.345Z,71.80
2017-04-10T01:33:35.159Z,71.71
2017-04-10T01:34:33.428Z,70.22
2017-04-10T01:35:31.262Z,67.21
2017-04-10T01:36:29.156Z,68.09
2017-04-10T01:37:26.967Z,68.90
2017-04-10T01:38:24.811Z,66.22
2017-04-10T01:39:22.700Z,67.64
2017-04-10T01:40:20.523Z,65.67
2017-04-10T01:41:18.651Z,68.98
2017-04-10T01:42:16.578Z,73.00
2017-04-10T01:43:14.447Z,72.17
2017-04-10T01:44:12.260Z,75.76
2017-04-10T01:45:10.106Z,73.93
2017-04-10T01:46:07.932Z,75.04
2017-04-10T01:47:05.823Z,74.81
2017-04-10T01:48:03.765Z,74.64
2017-04-10T01:49:01.568Z,75.09
2017-04-10T01:49:59.409Z,73.28
2017-04-10T01:50:57.319Z,73.75
2017-04-10T01:51:55.116Z,74.67
2017-04-10T01:52:53.048Z,76.94
2017-04-10T01:53:50.843Z,76.41
2017-04-10T01:54:48.693Z,76.96
2017-04-10T01:55:46.519Z,74.36
2017-04-10T01:56:44.568Z,73.92
2017-04-10T01:57:42.413Z,71.68
2017-04-10T01:58:40.236Z,74.56
2017-04-10T01:59:38.088Z,73.62
2017-04-10T02:00:35.976Z,77.31
2017-04-10T02:01:33.956Z,72.87
2017-04-10T02:02:32.084Z,69.51
2017-04-10T02:03:29.968Z,69.05
2017-04-10T02:04:27.753Z,70.89
2017-04-10T02:05:25.608Z,68.35
2017-04-10T02:06:23.448Z,67.87
2017-04-10T02:07:21.272Z,70.46
2017-04-10T02:08:19.140Z,73.47
2017-04-10T02:09:17.011Z,74.86
2017-04-10T02:10:14.864Z,74.75
2017-04-10T02:11:12.714Z,73.97
2017-04-10T02:12:10.552Z,78.60
2017-04-10T02:13:08.444Z,78.14
2017-04-10T02:14:06.294Z,79.26
2017-04-10T02:15:04.297Z,76.83
2017-04-10T02:16:02.104Z,76.58
2017-04-10T02:17:00.060Z,77.20
2017-04-10T02:17:57.896Z,75.43
2017-04-10T02:18:55.748Z,74.45
2017-04-10T02:19:53.608Z,70.78
2017-04-10T02:20:52.191Z,70.80
2017-04-10T02:21:50.139Z,67.62
2017-04-10T02:22:48.019Z,65.61
2017-04-10T02:23:45.916Z,65.15
2017-04-10T02:24:43.822Z,65.17
2017-04-10T02:25:41.742Z,64.72
2017-04-10T02:26:39.667Z,68.67
2017-04-10T02:27:37.469Z,70.97
2017-04-10T02:28:35.378Z,71.38
2017-04-10T02:29:33.264Z,71.18
2017-04-10T02:30:31.099Z,68.95
2017-04-10T02:31:29.085Z,72.73
2017-04-10T02:32:26.932Z,74.67
2017-04-10T02:33:24.931Z,71.24
2017-04-10T02:34:22.768Z,70.65
2017-04-10T02:35:20.668Z,68.03
2017-04-10T02:36:18.493Z,66.64
2017-04-10T02:37:16.348Z,65.39
2017-04-10T02:38:14.336Z,64.80
2017-04-10T02:39:12.204Z,71.03
2017-04-10T02:40:10.145Z,72.19
2017-04-10T02:41:07.988Z,73.39
2017-04-10T02:42:05.928Z,77.65
2017-04-10T02:43:03.775Z,77.38
2017-04-10T02:44:01.634Z,78.89
2017-04-10T02:44:59.568Z,79.01
2017-04-10T02:45:57.362Z,78.22
2017-04-10T02:46:55.332Z,78.17
2017-04-10T02:47:53.124Z,79.02
2017-04-10T02:48:51.095Z,80.21
2017-04-10T02:49:48.944Z,79.74
2017-04-10T02:50:46.747Z,78.45
2017-04-10T02:51:44.723Z,80.43
2017-04-10T02:52:42.576Z,79.72
2017-04-10T02:53:40.552Z,78.82
2017-04-10T02:54:38.384Z,76.79
2017-04-10T02:55:36.324Z,71.39
2017-04-10T02:56:34.159Z,71.04
2017-04-10T02:57:31.996Z,67.29
2017-04-10T02:58:29.909Z,65.04
2017-04-10T02:59:27.730Z,64.77
2017-04-10T03:00:25.941Z,64.37
2017-04-10T03:01:23.757Z,65.24
2017-04-10T03:02:21.640Z,65.33
2017-04-10T03:03:19.509Z,64.85
2017-04-10T03:04:17.305Z,65.12
2017-04-10T03:05:15.099Z,66.99
2017-04-10T03:06:12.955Z,72.63
2017-04-10T03:07:10.928Z,77.75
2017-04-10T03:08:08.760Z,78.95
2017-04-10T03:09:06.726Z,77.65
2017-04-10T03:10:04.583Z,78.07
2017-04-10T03:11:02.379Z,79.52
2017-04-10T03:12:00.319Z,78.13
2017-04-10T03:12:58.125Z,80.25
2017-04-10T03:13:56.112Z,78.39
2017-04-10T03:14:54.028Z,77.09
2017-04-10T03:15:51.810Z,79.82
2017-04-10T03:16:49.771Z,77.59
2017-04-10T03:17:47.619Z,80.21
2017-04-10T03:18:45.511Z,78.29
2017-04-10T03:19:43.327Z,80.81
2017-04-10T03:20:41.363Z,76.92
2017-04-10T03:21:39.173Z,75.18
2017-04-10T03:22:37.120Z,78.04
2017-04-10T03:23:35.028Z,75.74
2017-04-10T03:24:32.847Z,71.19
2017-04-10T03:25:30.751Z,68.58
2017-04-10T03:26:28.547Z,70.43
2017-04-10T03:27:26.564Z,71.51
2017-04-10T03:28:24.404Z,71.27
2017-04-10T03:29:22.232Z,67.44
2017-04-10T03:30:20.148Z,65.56
2017-04-10T03:31:17.968Z,70.16
2017-04-10T03:32:16.139Z,67.17
2017-04-10T03:33:13.949Z,65.82
2017-04-10T03:34:11.814Z,64.56
2017-04-10T03:35:09.709Z,64.48
2017-04-10T03:36:07.639Z,71.68
2017-04-10T03:37:05.490Z,70.12
2017-04-10T03:38:03.393Z,74.07
2017-04-10T03:39:01.236Z,74.82
2017-04-10T03:39:59.193Z,75.36
2017-04-10T03:40:57.061Z,73.58
2017-04-10T03:41:54.937Z,75.33
2017-04-10T03:42:52.769Z,77.88
2017-04-10T03:43:50.642Z,74.59
2017-04-10T03:44:48.474Z,70.93
2017-04-10T03:45:46.438Z,76.34
2017-04-10T03:46:44.244Z,76.03
2017-04-10T03:47:42.300Z,78.36
2017-04-10T03:48:40.171Z,72.69
2017-04-10T03:49:37.968Z,69.70
2017-04-10T03:50:35.888Z,70.27
2017-04-10T03:51:33.696Z,70.11
2017-04-10T03:52:31.619Z,71.67
2017-04-10T03:53:29.452Z,68.74
2017-04-10T03:54:27.464Z,70.10
2017-04-10T03:55:25.274Z,72.05
2017-04-10T03:56:23.147Z,75.62
2017-04-10T03:57:20.998Z,77.58
2017-04-10T03:58:18.889Z,78.99
2017-04-10T03:59:16.792Z,77.58
2017-04-10T04:00:14.620Z,77.17
2017-04-10T04:01:12.567Z,78.29
2017-04-10T04:02:10.384Z,75.60
2017-04-10T04:03:08.371Z,76.42
2017-04-10T04:04:06.240Z,75.47
2017-04-10T04:05:04.085Z,71.06
2017-04-10T04:06:02.021Z,75.03
2017-04-10T04:06:59.854Z,71.13
2017-04-10T04:07:57.771Z,68.62
2017-04-10T04:08:55.578Z,71.02
2017-04-10T04:09:53.807Z,69.45
2017-04-10T04:10:51.667Z,69.28
2017-04-10T04:11:49.461Z,67.18
2017-04-10T04:12:47.320Z,65.99
2017-04-10T04:13:45.132Z,69.75
2017-04-10T04:14:42.912Z,74.42
2017-04-10T04:15:40.755Z,70.60
2017-04-10T04:16:38.719Z,69.33
2017-04-10T04:17:36.575Z,66.83
2017-04-10T04:18:34.392Z,72.98
2017-04-10T04:19:32.461Z,72.31
2017-04-10T04:20:31.260Z,75.12
2017-04-10T04:21:29.142Z,75.33
2017-04-10T04:22:26.978Z,77.23
2017-04-10T04:23:24.836Z,77.24
2017-04-10T04:24:22.663Z,73.96
2017-04-10T04:25:20.507Z,70.88
2017-04-10T04:26:18.359Z,74.55
2017-04-10T04:27:16.152Z,70.94
2017-04-10T04:28:14.152Z,68.74
2017-04-10T04:29:11.984Z,66.60
2017-04-10T04:30:09.857Z,69.81
2017-04-10T04:31:07.742Z,68.18
2017-04-10T04:32:05.576Z,69.21
2017-04-10T04:33:03.468Z,72.62
2017-04-10T04:34:01.332Z,70.75
2017-04-10T04:34:59.451Z,67.84
2017-04-10T04:35:57.259Z,73.82
2017-04-10T04:36:55.195Z,69.74
2017-04-10T04:37:53.047Z,67.04
2017-04-10T04:38:50.940Z,73.18
2017-04-10T04:39:48.839Z,73.47
2017-04-10T04:40:46.722Z,72.78
2017-04-10T04:41:44.593Z,75.74
2017-04-10T04:42:42.440Z,73.32
2017-04-10T04:43:40.248Z,70.42
2017-04-10T04:44:38.245Z,71.67
2017-04-10T04:45:36.081Z,74.35
2017-04-10T04:46:33.980Z,73.62
2017-04-10T04:47:31.990Z,71.49
2017-04-10T04:48:29.847Z,69.37
2017-04-10T04:49:27.660Z,69.50
2017-04-10T04:50:25.560Z,72.36
2017-04-10T04:51:23.412Z,70.83
2017-04-10T04:52:21.229Z,67.61
2017-04-10T04:53:19.217Z,67.97
2017-04-10T04:54:17.067Z,67.77
2017-04-10T04:55:15.052Z,70.83
2017-04-10T04:56:12.894Z,66.57
2017-04-10T04:57:10.751Z,66.04
2017-04-10T04:58:08.635Z,66.91
2017-04-10T04:59:06.495Z,66.32
2017-04-10T05:00:04.484Z,67.41
2017-04-10T05:01:02.313Z,68.44
2017-04-10T05:02:00.281Z,67.13
2017-04-10T05:02:58.097Z,65.90
2017-04-10T05:03:55.901Z,67.90
2017-04-10T05:04:53.840Z,66.81
2017-04-10T05:05:51.645Z,65.44
2017-04-10T05:06:49.727Z,66.10
2017-04-10T05:07:47.554Z,66.29
2017-04-10T05:08:45.466Z,65.42
2017-04-10T05:09:43.300Z,65.34
2017-04-10T05:10:41.157Z,64.90
2017-04-10T05:11:39.059Z,65.52
2017-04-10T05:12:36.879Z,67.08
2017-04-10T05:13:34.872Z,64.89
2017-04-10T05:14:32.723Z,65.23
2017-04-10T05:15:30.656Z,64.99
2017-04-10T05:16:28.498Z,65.67
2017-04-10T05:17:26.340Z,65.02
2017-04-10T05:18:24.239Z,64.82
2017-04-10T05:19:22.064Z,66.42
2017-04-10T05:20:20.049Z,65.83
2017-04-10T05:21:17.925Z,67.73
2017-04-10T05:22:15.837Z,65.62
2017-04-10T05:23:13.663Z,64.96
2017-04-10T05:24:11.506Z,65.56
2017-04-10T05:25:09.472Z,66.75
2017-04-10T05:26:07.472Z,65.41
2017-04-10T05:27:05.345Z,68.42
2017-04-10T05:28:03.180Z,66.44
2017-04-10T05:29:01.126Z,65.12
2017-04-10T05:29:58.949Z,67.11
2017-04-10T05:30:56.910Z,65.95
2017-04-10T05:31:54.795Z,65.37
2017-04-10T05:32:52.716Z,67.37
2017-04-10T05:33:50.613Z,65.06
2017-04-10T05:34:48.446Z,65.64
2017-04-10T05:35:46.317Z,64.84
2017-04-10T05:36:44.238Z,66.09
2017-04-10T05:37:42.068Z,67.30
2017-04-10T05:38:39.991Z,68.39
2017-04-10T05:39:37.815Z,66.63
2017-04-10T05:40:35.704Z,65.35
2017-04-10T05:41:33.589Z,64.68
2017-04-10T05:42:31.471Z,65.68
2017-04-10T05:43:29.389Z,65.57
2017-04-10T05:44:27.275Z,66.93
2017-04-10T05:45:25.164Z,67.25
2017-04-10T05:46:23.001Z,65.91
2017-04-10T05:47:20.943Z,68.65
2017-04-10T05:48:18.842Z,67.34
2017-04-10T05:49:16.667Z,66.46
2017-04-10T05:50:14.530Z,65.76
2017-04-10T05:51:12.433Z,67.13
2017-04-10T05:52:10.447Z,65.45
2017-04-10T05:53:08.271Z,67.50
2017-04-10T05:54:06.149Z,66.60
2017-04-10T05:55:04.211Z,65.31
2017-04-10T05:56:02.152Z,65.21
2017-04-10T05:57:00.008Z,66.96
2017-04-10T05:57:57.852Z,65.75
2017-04-10T05:58:55.738Z,66.72
2017-04-10T05:59:53.691Z,64.96
2017-04-10T06:00:51.528Z,65.46
2017-04-10T06:01:49.395Z,65.49
2017-04-10T06:02:47.276Z,67.23
2017-04-10T06:03:45.182Z,65.85
2017-04-10T06:04:43.023Z,65.42
2017-04-10T06:05:40.888Z,67.82
2017-04-10T06:06:38.768Z,67.56
2017-04-10T06:07:36.597Z,67.64
2017-04-10T06:08:35.725Z,65.70
2017-04-10T06:09:33.560Z,66.38
2017-04-10T06:10:31.576Z,66.37
2017-04-10T06:11:29.447Z,66.80
2017-04-10T06:12:27.426Z,66.95
2017-04-10T06:13:25.293Z,67.43
2017-04-10T06:14:23.181Z,67.03
2017-04-10T06:15:21.238Z,66.53
2017-04-10T06:16:19.068Z,68.46
2017-04-10T06:17:16.916Z,67.39
2017-04-10T06:18:14.731Z,66.15
2017-04-10T06:19:12.718Z,66.32
2017-04-10T06:20:10.621Z,66.58
2017-04-10T06:21:08.461Z,66.83
2017-04-10T06:22:06.305Z,66.21
2017-04-10T06:23:04.169Z,65.57
2017-04-10T06:24:02.109Z,68.28
2017-04-10T06:24:59.940Z,66.99
2017-04-10T06:25:57.886Z,67.02
2017-04-10T06:26:55.739Z,68.54
2017-04-10T06:27:53.547Z,67.72
2017-04-10T06:28:51.503Z,67.21
2017-04-10T06:29:49.357Z,67.84
2017-04-10T06:30:47.229Z,67.64
2017-04-10T06:31:45.076Z,67.98
2017-04-10T06:32:43.032Z,67.22
2017-04-10T06:33:40.929Z,67.96
2017-04-10T06:34:38.773Z,67.98
2017-04-10T06:35:36.631Z,67.25
2017-04-10T06:36:34.569Z,67.97
2017-04-10T06:37:33.235Z,68.37
2017-04-10T06:38:31.116Z,68.65
2017-04-10T06:39:28.999Z,69.25
2017-04-10T06:40:26.864Z,67.25
2017-04-10T06:41:24.756Z,67.99
2017-04-10T06:42:22.618Z,68.34
2017-04-10T06:43:20.501Z,68.93
2017-04-10T06:44:18.397Z,69.04
2017-04-10T06:45:16.329Z,68.60
2017-04-10T06:46:14.184Z,69.15
2017-04-10T06:47:12.041Z,67.78
2017-04-10T06:48:09.856Z,68.28
2017-04-10T06:49:07.748Z,68.41
2017-04-10T06:50:05.739Z,68.46
2017-04-10T06:51:03.639Z,68.24
2017-04-10T06:52:01.516Z,68.80
2017-04-10T06:52:59.391Z,68.77
2017-04-10T06:53:57.221Z,66.99
2017-04-10T06:54:55.071Z,67.91
2017-04-10T06:55:52.930Z,68.15
2017-04-10T06:56:50.807Z,68.02
2017-04-10T06:57:48.733Z,68.78
2017-04-10T06:58:46.555Z,69.85
2017-04-10T06:59:44.506Z,68.79
2017-04-10T07:00:42.451Z,69.19
2017-04-10T07:01:40.377Z,69.55
2017-04-10T07:02:38.336Z,67.92
2017-04-10T07:03:36.198Z,69.22
2017-04-10T07:04:34.023Z,69.86
2017-04-10T07:05:31.849Z,69.02
2017-04-10T07:06:29.664Z,68.23
2017-04-10T07:07:27.563Z,69.02
2017-04-10T07:08:25.452Z,69.27
2017-04-10T07:09:23.483Z,68.41
2017-04-10T07:10:21.329Z,68.26
2017-04-10T07:11:19.545Z,68.96
2017-04-10T07:12:17.393Z,68.66
2017-04-10T07:13:15.220Z,69.44
2017-04-10T07:14:13.068Z,69.37
2017-04-10T07:15:10.920Z,69.95
2017-04-10T07:16:08.777Z,69.85
2017-04-10T07:17:06.647Z,69.85
2017-04-10T07:18:04.523Z,69.86
2017-04-10T07:19:02.348Z,68.24
2017-04-10T07:20:00.166Z,68.82
2017-04-10T07:20:58.002Z,68.46
2017-04-10T07:21:55.978Z,68.16
2017-04-10T07:22:53.862Z,69.08
2017-04-10T07:23:51.720Z,68.81
2017-04-10T07:24:49.601Z,69.33
2017-04-10T07:25:47.444Z,70.03
2017-04-10T07:26:45.360Z,69.01
2017-04-10T07:27:43.273Z,69.22
2017-04-10T07:28:41.141Z,69.07
2017-04-10T07:29:39.119Z,69.45
2017-04-10T07:30:37.048Z,70.13
2017-04-10T07:31:34.909Z,70.24
2017-04-10T07:32:32.765Z,70.13
2017-04-10T07:33:30.656Z,68.90
2017-04-10T07:34:28.512Z,68.28
2017-04-10T07:35:26.387Z,68.09
2017-04-10T07:36:24.332Z,68.94
2017-04-10T07:37:22.171Z,68.68
2017-04-10T07:38:20.136Z,67.66
2017-04-10T07:39:17.979Z,68.60
2017-04-10T07:40:15.981Z,69.39
2017-04-10T07:41:13.784Z,69.76
2017-04-10T07:42:11.651Z,69.08
2017-04-10T07:43:09.523Z,68.15
2017-04-10T07:44:07.411Z,68.77
2017-04-10T07:45:05.375Z,69.64
2017-04-10T07:46:03.260Z,70.23
2017-04-10T07:47:01.107Z,69.36
2017-04-10T07:47:58.963Z,69.50
2017-04-10T07:48:56.816Z,69.44
2017-04-10T07:49:54.852Z,70.03
2017-04-10T07:50:52.738Z,69.10
2017-04-10T07:51:50.637Z,68.54
2017-04-10T07:52:48.500Z,67.71
2017-04-10T07:53:46.352Z,69.48
2017-04-10T07:54:44.154Z,69.07
2017-04-10T07:55:41.994Z,68.23
2017-04-10T07:56:39.936Z,67.27
2017-04-10T07:57:37.846Z,67.47
2017-04-10T07:58:35.724Z,69.65
2017-04-10T07:59:33.584Z,68.80
2017-04-10T08:00:31.441Z,67.96
2017-04-10T08:01:29.393Z,68.53
2017-04-10T08:02:27.227Z,69.27
2017-04-10T08:03:25.074Z,68.81
2017-04-10T08:04:22.911Z,67.23
2017-04-10T08:05:20.837Z,66.87
2017-04-10T08:06:18.782Z,69.40
2017-04-10T08:07:16.838Z,67.93
2017-04-10T08:08:15.000Z,70.39
2017-04-10T08:09:12.825Z,69.91
2017-04-10T08:10:10.699Z,67.07
2017-04-10T08:11:08.514Z,66.71
2017-04-10T08:12:06.332Z,65.97
2017-04-10T08:13:04.244Z,67.29
2017-04-10T08:14:02.075Z,65.94
2017-04-10T08:14:59.919Z,65.66
2017-04-10T08:15:57.768Z,65.97
2017-04-10T08:16:55.613Z,67.90
2017-04-10T08:17:53.509Z,69.11
2017-04-10T08:18:51.315Z,68.19
2017-04-10T08:19:49.208Z,68.47
2017-04-10T08:20:47.064Z,67.04
2017-04-10T08:21:44.930Z,67.37
2017-04-10T08:22:42.779Z,67.56
2017-04-10T08:23:40.637Z,67.53
2017-04-10T08:24:38.452Z,66.04
2017-04-10T08:25:36.407Z,66.15
2017-04-10T08:26:34.268Z,66.00
2017-04-10T08:27:32.160Z,66.86
2017-04-10T08:28:30.007Z,67.74
2017-04-10T08:29:27.838Z,67.97
2017-04-10T08:30:25.780Z,66.81
2017-04-10T08:31:23.625Z,66.70
2017-04-10T08:32:21.609Z,66.42
2017-04-10T08:33:19.432Z,66.78
2017-04-10T08:34:17.341Z,65.88
2017-04-10T08:35:15.225Z,66.33
2017-04-10T08:36:13.046Z,65.46
2017-04-10T08:37:10.957Z,65.34
2017-04-10T08:38:08.749Z,65.74
2017-04-10T08:39:06.638Z,66.70
2017-04-10T08:40:04.517Z,67.39
2017-04-10T08:41:02.404Z,66.89
2017-04-10T08:42:00.253Z,66.93
2017-04-10T08:42:58.093Z,66.99
2017-04-10T08:43:55.929Z,67.01
2017-04-10T08:44:53.769Z,67.72
2017-04-10T08:45:51.647Z,67.89
2017-04-10T08:46:49.439Z,66.25
2017-04-10T08:47:47.291Z,66.24
2017-04-10T08:48:45.128Z,67.62
2017-04-10T08:49:42.947Z,68.12
2017-04-10T08:50:40.773Z,67.49
2017-04-10T08:51:38.658Z,66.51
2017-04-10T08:52:36.484Z,66.80
2017-04-10T08:53:34.369Z,66.90
2017-04-10T08:54:32.257Z,67.32
2017-04-10T08:55:30.096Z,65.15
2017-04-10T08:56:28.056Z,65.18
2017-04-10T08:57:25.884Z,66.87
2017-04-10T08:58:23.695Z,67.06
2017-04-10T08:59:21.605Z,66.56
2017-04-10T09:00:19.460Z,66.53
2017-04-10T09:01:17.360Z,67.23
2017-04-10T09:02:15.209Z,66.85
2017-04-10T09:03:13.156Z,67.54
2017-04-10T09:04:11.046Z,67.56
2017-04-10T09:05:08.897Z,68.47
2017-04-10T09:06:06.867Z,68.44
2017-04-10T09:07:04.730Z,68.01
2017-04-10T09:08:02.617Z,68.39
2017-04-10T09:09:00.480Z,67.56
2017-04-10T09:09:58.437Z,67.75
2017-04-10T09:10:56.283Z,66.56
2017-04-10T09:11:54.113Z,67.50
2017-04-10T09:12:52.015Z,67.18
2017-04-10T09:13:49.864Z,66.52
2017-04-10T09:14:47.828Z,66.46
2017-04-10T09:15:45.677Z,66.34
2017-04-10T09:16:43.664Z,66.10
2017-04-10T09:17:41.514Z,66.89
2017-04-10T09:18:39.441Z,65.79
2017-04-10T09:19:37.275Z,66.23
2017-04-10T09:20:35.133Z,66.44
2017-04-10T09:21:32.996Z,65.98
2017-04-10T09:22:30.889Z,66.56
2017-04-10T09:23:28.712Z,65.77
2017-04-10T09:24:26.577Z,66.07
2017-04-10T09:25:24.404Z,65.71
2017-04-10T09:26:22.368Z,66.12
2017-04-10T09:27:20.219Z,67.08
2017-04-10T09:28:18.165Z,66.22
2017-04-10T09:29:15.989Z,66.62
2017-04-10T09:30:13.923Z,66.40
2017-04-10T09:31:11.785Z,66.48
2017-04-10T09:32:09.609Z,66.48
2017-04-10T09:33:07.545Z,66.13
2017-04-10T09:34:05.409Z,65.76
2017-04-10T09:35:03.313Z,66.97
2017-04-10T09:36:01.145Z,66.90
2017-04-10T09:36:59.144Z,66.18
2017-04-10T09:37:56.983Z,65.81
2017-04-10T09:38:54.845Z,66.19
2017-04-10T09:39:52.725Z,65.69
2017-04-10T09:40:50.570Z,65.52
2017-04-10T09:41:48.507Z,65.59
2017-04-10T09:42:46.377Z,65.68
2017-04-10T09:43:44.316Z,65.88
2017-04-10T09:44:42.160Z,66.11
2017-04-10T09:45:39.989Z,65.31
2017-04-10T09:46:37.965Z,65.32
2017-04-10T09:47:35.816Z,66.21
2017-04-10T09:48:33.676Z,65.83
2017-04-10T09:49:31.533Z,64.19
2017-04-10T09:50:29.459Z,65.42
2017-04-10T09:51:27.349Z,65.36
2017-04-10T09:52:25.224Z,65.44
2017-04-10T09:53:23.639Z,65.65
2017-04-10T09:54:21.568Z,65.64
2017-04-10T09:55:19.462Z,65.17
2017-04-10T09:56:17.286Z,64.12
2017-04-10T09:57:15.099Z,64.83
2017-04-10T09:58:12.959Z,64.06
2017-04-10T09:59:10.921Z,64.28
2017-04-10T10:00:08.956Z,63.23
2017-04-10T10:01:06.808Z,63.91
2017-04-10T10:02:04.617Z,62.46
2017-04-10T10:03:02.536Z,63.00
2017-04-10T10:04:00.364Z,63.50
2017-04-10T10:04:58.204Z,63.04
2017-04-10T10:05:56.131Z,62.53
2017-04-10T10:06:53.948Z,61.62
2017-04-10T10:07:51.767Z,62.22
2017-04-10T10:08:49.612Z,61.13
2017-04-10T10:09:47.489Z,61.71
2017-04-10T10:10:45.316Z,61.38
2017-04-10T10:11:43.201Z,62.12
2017-04-10T10:12:41.031Z,63.07
2017-04-10T10:13:38.891Z,61.82
2017-04-10T10:14:36.775Z,62.61
2017-04-10T10:15:34.653Z,61.76
2017-04-10T10:16:32.502Z,62.15
2017-04-10T10:17:30.421Z,62.34
2017-04-10T10:18:28.251Z,62.48
2017-04-10T10:19:26.091Z,61.33
2017-04-10T10:20:24.051Z,62.41
2017-04-10T10:21:21.916Z,63.21
2017-04-10T10:22:19.780Z,61.37
2017-04-10T10:23:17.594Z,61.71
2017-04-10T10:24:15.449Z,60.84
2017-04-10T10:25:13.306Z,61.25
2017-04-10T10:26:11.167Z,60.66
2017-04-10T10:27:09.022Z,61.28
2017-04-10T10:28:06.858Z,61.98
2017-04-10T10:29:04.720Z,61.49
2017-04-10T10:30:02.599Z,61.28
2017-04-10T10:31:00.439Z,62.38
2017-04-10T10:31:58.336Z,63.47
2017-04-10T10:32:56.219Z,63.54
2017-04-10T10:33:54.042Z,64.14
2017-04-10T10:34:51.912Z,64.37
2017-04-10T10:35:49.737Z,63.94
2017-04-10T10:36:47.600Z,64.13
2017-04-10T10:37:45.482Z,62.85
2017-04-10T10:38:43.345Z,62.22
2017-04-10T10:39:41.316Z,63.79
2017-04-10T10:40:39.203Z,65.07
2017-04-10T10:41:37.045Z,63.79
2017-04-10T10:42:34.891Z,62.45
2017-04-10T10:43:32.725Z,63.23
2017-04-10T10:44:30.692Z,62.94
2017-04-10T10:45:28.519Z,61.35
2017-04-10T10:46:26.454Z,60.98
2017-04-10T10:47:24.329Z,62.01
2017-04-10T10:48:22.273Z,63.09
2017-04-10T10:49:20.143Z,62.13
2017-04-10T10:50:17.999Z,61.83
2017-04-10T10:51:15.952Z,61.96
2017-04-10T10:52:13.826Z,63.76
2017-04-10T10:53:11.737Z,60.78
2017-04-10T10:54:09.627Z,60.61
2017-04-10T10:55:07.513Z,62.30
2017-04-10T10:56:05.364Z,60.66
2017-04-10T10:57:03.220Z,60.61
2017-04-10T10:58:01.154Z,60.17
2017-04-10T10:58:58.993Z,60.38
2017-04-10T10:59:56.908Z,60.45
2017-04-10T11:00:54.727Z,60.03
2017-04-10T11:01:52.760Z,59.79
2017-04-10T11:02:50.608Z,60.02
2017-04-10T11:03:48.471Z,58.94
2017-04-10T11:04:46.325Z,59.21
2017-04-10T11:05:44.215Z,59.27
2017-04-10T11:06:42.218Z,59.50
2017-04-10T11:07:40.136Z,59.53
2017-04-10T11:08:37.967Z,59.95
2017-04-10T11:09:35.801Z,59.84
2017-04-10T11:10:33.616Z,59.52
2017-04-10T11:11:31.573Z,60.15
2017-04-10T11:12:29.399Z,59.03
2017-04-10T11:13:27.339Z,59.80
2017-04-10T11:14:25.176Z,59.78
2017-04-10T11:15:23.130Z,60.67
2017-04-10T11:16:20.992Z,60.02
2017-04-10T11:17:18.861Z,60.43
2017-04-10T11:18:16.727Z,60.52
2017-04-10T11:19:14.580Z,61.31
2017-04-10T11:20:12.469Z,60.59
2017-04-10T11:21:10.302Z,60.12
2017-04-10T11:22:08.300Z,60.90
2017-04-10T11:23:06.211Z,60.76
2017-04-10T11:24:04.105Z,59.64
2017-04-10T11:25:01.959Z,60.88
2017-04-10T11:25:59.759Z,61.72
2017-04-10T11:26:57.639Z,61.84
2017-04-10T11:27:55.524Z,62.27
2017-04-10T11:28:53.379Z,60.57
2017-04-10T11:29:51.248Z,61.62
2017-04-10T11:30:49.109Z,62.47
2017-04-10T11:31:46.928Z,61.66
2017-04-10T11:32:44.772Z,60.55
2017-04-10T11:33:42.664Z,61.65
2017-04-10T11:34:40.496Z,61.73
2017-04-10T11:35:38.336Z,62.73
2017-04-10T11:36:36.187Z,62.73
2017-04-10T11:37:34.088Z,62.67
2017-04-10T11:38:32.483Z,62.63
2017-04-10T11:39:30.360Z,62.65
2017-04-10T11:40:28.217Z,62.35
2017-04-10T11:41:26.049Z,61.32
2017-04-10T11:42:23.888Z,62.61
2017-04-10T11:43:21.864Z,62.33
2017-04-10T11:44:19.733Z,61.52
2017-04-10T11:45:18.063Z,62.61
2017-04-10T11:46:15.944Z,61.99
2017-04-10T11:47:13.833Z,62.17
2017-04-10T11:48:11.696Z,61.61
2017-04-10T11:49:09.569Z,62.64
2017-04-10T11:50:07.445Z,61.56
2017-04-10T11:51:05.301Z,63.16
2017-04-10T11:52:03.201Z,63.39
2017-04-10T11:53:01.096Z,62.18
2017-04-10T11:53:58.973Z,61.92
2017-04-10T11:54:56.884Z,61.53
2017-04-10T11:55:54.797Z,62.53
2017-04-10T11:56:52.697Z,62.78
2017-04-10T11:57:50.561Z,62.96
2017-04-10T11:58:48.447Z,63.46
2017-04-10T11:59:46.287Z,63.36
2017-04-10T12:00:44.119Z,63.06
2017-04-10T12:01:42.018Z,62.43
2017-04-10T12:02:39.861Z,61.79
2017-04-10T12:03:37.732Z,60.88
2017-04-10T12:04:35.589Z,60.80
2017-04-10T12:05:33.489Z,61.23
2017-04-10T12:06:31.354Z,61.19
2017-04-10T12:07:29.191Z,61.47
2017-04-10T12:08:27.068Z,61.08
2017-04-10T12:09:24.915Z,60.79
2017-04-10T12:10:22.759Z,60.03
2017-04-10T12:11:20.720Z,59.95
2017-04-10T12:12:18.645Z,60.92
2017-04-10T12:13:16.532Z,59.97
2017-04-10T12:14:14.405Z,60.05
2017-04-10T12:15:12.223Z,60.94
2017-04-10T12:16:10.127Z,60.83
2017-04-10T12:17:07.992Z,61.15
2017-04-10T12:18:05.844Z,60.69
2017-04-10T12:19:03.680Z,60.91
2017-04-10T12:20:01.663Z,60.33
2017-04-10T12:20:59.538Z,61.11
2017-04-10T12:21:57.401Z,61.38
2017-04-10T12:22:55.237Z,61.62
2017-04-10T12:23:53.081Z,60.26
2017-04-10T12:24:50.935Z,59.79
2017-04-10T12:25:48.838Z,60.08